Fillmore, Missouri
Current Conditions -  °F | °C
As of 10:53 PM on Wednesday 26 Nov 2014 (Local Time) from KSTJ Reporting Station
Overcast Overcast  
Wind Chill: 14°   Ceiling: 1700
Heat Index: 27°   Visibility: 10mi
Dew Point: 21°   Wind: 17mph
Humidity: 78%   Direction: 350°N
Pressure: 30.41"   Gusts: NA
Location:  40.03°N, 94.97°W
Report Text: KSTJ 270453Z AUTO 35015KT 10SM OVC017 M03/M06 A3041 RMK AO2 SLP307 T10281061
Loading
Personal Weather Stations






























Interactive Weather Map New forecast layout! Learn more

10-Day Weather Forecast

Advertisements
Track Severe Weather on mobile